Time;durP1;ratioP1;P1;durP2;ratioP2;P2;SDS_P1;SDS_P2;PMS_P1;PMS_P2;Temp;Humidity;BMP_temperature;BMP_pressure;BME280_temperature;BME280_humidity;BME280_pressure;Samples;Min_cycle;Max_cycle;Signal;HPM_P1;HPM_P2
2023/10/16 00:02:03;;;;;;;4.08;2.27;;;;;;;18.46;56.90;101202.70;2298408;77;50188;-76
2023/10/16 00:05:08;;;;;;;3.35;2.22;;;;;;;18.46;56.91;101193.83;2239941;78;22212;-75
2023/10/16 00:08:07;;;;;;;3.12;2.30;;;;;;;18.47;56.83;101206.21;2224717;77;22293;-76
2023/10/16 00:11:09;;;;;;;3.17;2.10;;;;;;;18.45;56.90;101198.36;2196171;79;51095;-76
2023/10/16 00:14:31;;;;;;;3.87;2.20;;;;;;;18.44;56.83;101210.06;2200347;79;51268;-76
2023/10/16 00:17:21;;;;;;;2.15;1.92;;;;;;;18.44;56.84;101208.73;2222575;79;22311;-76
2023/10/16 00:20:26;;;;;;;3.30;2.15;;;;;;;18.46;56.83;101213.93;2225019;78;21839;-76
2023/10/16 00:23:30;;;;;;;3.25;2.10;;;;;;;18.44;56.77;101206.05;2224738;79;22214;-75
2023/10/16 00:26:30;;;;;;;4.55;2.50;;;;;;;18.43;56.86;101205.72;2220126;78;21948;-75
2023/10/16 00:29:35;;;;;;;3.52;2.00;;;;;;;18.44;56.77;101202.53;2224300;79;50293;-74
2023/10/16 00:32:40;;;;;;;2.77;2.00;;;;;;;18.44;56.82;101202.53;2264776;77;22314;-74
2023/10/16 00:35:41;;;;;;;4.12;2.25;;;;;;;18.43;56.87;101212.42;2295591;76;21806;-77
2023/10/16 00:38:48;;;;;;;3.55;2.22;;;;;;;18.42;56.81;101212.58;2276552;76;50662;-77
2023/10/16 00:41:50;;;;;;;3.35;1.80;;;;;;;18.42;56.78;101210.77;2298257;76;22776;-76
2023/10/16 00:44:59;;;;;;;4.00;1.92;;;;;;;18.42;56.80;101212.58;2258271;76;22297;-76
2023/10/16 00:48:01;;;;;;;2.83;2.00;;;;;;;18.42;56.79;101211.23;2299042;76;22462;-73
2023/10/16 00:51:13;;;;;;;2.70;1.98;;;;;;;18.42;56.82;101209.42;2257391;76;50646;-74
2023/10/16 00:54:18;;;;;;;3.62;2.30;;;;;;;18.40;56.78;101210.09;2236338;77;22319;-76
2023/10/16 00:57:17;;;;;;;3.15;2.02;;;;;;;18.41;56.78;101206.90;2297602;76;22302;-76
2023/10/16 01:00:19;;;;;;;2.60;1.98;;;;;;;18.41;56.77;101212.26;2257713;77;50076;-75
2023/10/16 01:03:22;;;;;;;3.40;2.05;;;;;;;18.39;56.70;101209.73;2298967;76;50313;-75
2023/10/16 01:06:41;;;;;;;3.62;2.15;;;;;;;18.40;56.72;101203.89;2278248;77;50026;-72
2023/10/16 01:09:42;;;;;;;2.98;2.20;;;;;;;18.38;56.73;101213.43;2265706;77;22222;-74
2023/10/16 01:12:54;;;;;;;2.77;1.87;;;;;;;18.38;56.73;101214.77;2259184;77;50768;-74
2023/10/16 01:15:53;;;;;;;3.42;2.10;;;;;;;18.37;56.78;101211.77;2258761;76;22154;-74
2023/10/16 01:18:52;;;;;;;2.92;1.90;;;;;;;18.37;56.68;101217.13;2260761;77;21720;-73
2023/10/16 01:21:58;;;;;;;3.17;1.95;;;;;;;18.37;56.71;101218.47;2298010;77;50850;-73
2023/10/16 01:25:03;;;;;;;3.20;1.80;;;;;;;18.37;56.71;101216.27;2276177;77;22005;-74
2023/10/16 01:28:05;;;;;;;2.92;1.72;;;;;;;18.36;56.71;101218.11;2277582;77;24830;-74
2023/10/16 01:31:07;;;;;;;3.00;2.00;;;;;;;18.36;56.67;101211.41;2254562;76;50610;-73
2023/10/16 01:34:12;;;;;;;2.98;1.98;;;;;;;18.36;56.66;101211.41;2275543;77;50742;-74
2023/10/16 01:37:18;;;;;;;3.35;2.20;;;;;;;18.36;56.70;101203.88;2277061;77;50676;-74
2023/10/16 01:40:21;;;;;;;3.62;2.00;;;;;;;18.34;56.72;101200.05;2260384;77;22935;-74
2023/10/16 01:43:24;;;;;;;3.00;1.82;;;;;;;18.34;56.69;101204.08;2260716;77;50549;-75
2023/10/16 01:46:26;;;;;;;2.62;1.80;;;;;;;18.33;56.74;101205.06;2251620;77;50852;-75
2023/10/16 01:49:28;;;;;;;2.83;1.90;;;;;;;18.32;56.69;101196.70;2209282;77;51182;-75
2023/10/16 01:52:33;;;;;;;2.77;1.90;;;;;;;18.33;56.67;101200.20;2251167;77;50623;-75
2023/10/16 01:55:34;;;;;;;2.65;1.95;;;;;;;18.34;56.66;101198.72;2276639;76;22795;-75
2023/10/16 01:58:37;;;;;;;4.12;1.98;;;;;;;18.32;56.67;101206.08;2276217;77;50692;-75
2023/10/16 02:01:40;;;;;;;3.55;2.27;;;;;;;18.32;56.65;101215.45;2297861;77;51432;-76
2023/10/16 02:04:42;;;;;;;2.72;1.95;;;;;;;18.33;56.59;101210.92;2247674;77;50103;-75
2023/10/16 02:07:45;;;;;;;2.77;1.60;;;;;;;18.32;56.61;101210.09;2251210;77;51525;-75
2023/10/16 02:10:49;;;;;;;2.90;1.85;;;;;;;18.32;56.62;101206.08;2297591;76;51445;-75
2023/10/16 02:13:51;;;;;;;3.25;2.25;;;;;;;18.32;56.59;101205.24;2297786;76;24240;-75
2023/10/16 02:16:53;;;;;;;2.70;1.70;;;;;;;18.31;56.54;101202.21;2297503;76;50238;-74
2023/10/16 02:19:55;;;;;;;4.20;1.90;;;;;;;18.31;56.62;101213.76;2259302;77;50614;-75
2023/10/16 02:22:59;;;;;;;3.40;2.08;;;;;;;18.30;56.58;101210.76;2259005;76;51419;-75
2023/10/16 02:26:05;;;;;;;3.17;1.80;;;;;;;18.31;56.57;101208.91;2297394;76;51533;-73
2023/10/16 02:29:06;;;;;;;2.27;1.60;;;;;;;18.29;56.58;101205.08;2298123;77;22244;-75
2023/10/16 02:32:10;;;;;;;2.25;1.55;;;;;;;18.31;56.58;101220.45;2251800;77;51429;-73
2023/10/16 02:35:15;;;;;;;4.10;2.08;;;;;;;18.30;56.58;101213.94;2252423;76;50704;-73
2023/10/16 02:38:29;;;;;;;2.50;1.90;;;;;;;18.29;56.53;101214.45;2210341;77;51804;-75
2023/10/16 02:41:33;;;;;;;2.62;1.67;;;;;;;18.29;56.55;101221.16;2278466;77;50029;-74
2023/10/16 02:44:39;;;;;;;2.65;1.60;;;;;;;18.28;56.53;101216.78;2297339;76;51415;-74
2023/10/16 02:47:42;;;;;;;2.50;1.87;;;;;;;18.27;56.53;101217.28;2232640;77;53400;-73
2023/10/16 02:50:50;;;;;;;3.02;1.72;;;;;;;18.27;56.53;101219.97;2276611;77;50761;-72
2023/10/16 02:53:51;;;;;;;3.10;1.80;;;;;;;18.27;56.54;101220.47;2297483;76;22147;-75
2023/10/16 02:56:59;;;;;;;2.60;1.82;;;;;;;18.28;56.47;101210.08;2259561;77;50634;-75
2023/10/16 02:59:57;;;;;;;2.90;1.80;;;;;;;18.26;56.46;101212.08;2298211;77;22888;-75
2023/10/16 03:02:59;;;;;;;2.55;1.65;;;;;;;18.26;56.43;101214.28;2209421;77;52182;-74
2023/10/16 03:06:03;;;;;;;2.60;1.80;;;;;;;18.25;56.43;101215.78;2277535;76;51609;-74
2023/10/16 03:09:28;;;;;;;2.98;1.82;;;;;;;18.24;56.51;101207.42;2253568;76;22871;-75
2023/10/16 03:12:09;;;;;;;3.65;1.90;;;;;;;18.25;56.47;101217.12;2240281;77;22312;-73
2023/10/16 03:15:20;;;;;;;2.62;1.75;;;;;;;18.25;56.47;101223.30;2297971;76;51454;-75
2023/10/16 03:18:23;;;;;;;3.25;1.57;;;;;;;18.22;56.49;101218.29;2263289;77;51704;-75
2023/10/16 03:21:28;;;;;;;2.80;1.70;;;;;;;18.24;56.48;101231.53;2251211;77;50758;-75
2023/10/16 03:24:34;;;;;;;2.80;1.77;;;;;;;18.22;56.41;101223.64;2260982;77;51522;-73
2023/10/16 03:27:42;;;;;;;2.55;1.62;;;;;;;18.23;56.44;101231.17;2301915;75;21763;-70
2023/10/16 03:30:45;;;;;;;2.55;1.40;;;;;;;18.23;56.45;101227.16;2302784;75;22345;-69
2023/10/16 03:33:49;;;;;;;3.05;1.65;;;;;;;18.20;56.45;101214.09;2169235;77;22076;-76
2023/10/16 03:36:59;;;;;;;1.55;1.40;;;;;;;18.21;56.40;101217.10;2156559;81;51035;-76
2023/10/16 03:40:11;;;;;;;4.12;1.72;;;;;;;18.20;56.42;101219.45;2157529;79;21754;-73
2023/10/16 03:43:11;;;;;;;2.67;1.85;;;;;;;18.20;56.42;101224.31;2175508;80;22386;-72
2023/10/16 03:46:13;;;;;;;1.90;1.40;;;;;;;18.18;56.43;101224.14;2180373;80;50760;-74
2023/10/16 03:49:22;;;;;;;2.70;1.65;;;;;;;18.19;56.46;101227.17;2180666;80;50394;-72
2023/10/16 03:52:28;;;;;;;2.25;1.40;;;;;;;18.19;56.44;101227.17;2179720;80;22300;-73
2023/10/16 03:55:32;;;;;;;2.60;1.72;;;;;;;18.18;56.39;101227.64;2136321;77;50637;-75
2023/10/16 03:58:41;;;;;;;1.82;1.50;;;;;;;18.18;56.42;101229.50;2180495;80;51513;-72
2023/10/16 04:01:50;;;;;;;1.70;1.30;;;;;;;18.17;56.39;101225.16;2157300;81;22167;-74
2023/10/16 04:08:33;;;;;;;1.77;1.40;;;;;;;18.18;56.38;101221.45;2075343;83;21942;-70
2023/10/16 04:11:47;;;;;;;2.95;1.60;;;;;;;18.17;56.35;101220.63;2053161;85;22036;-72
2023/10/16 04:15:03;;;;;;;2.52;1.40;;;;;;;18.16;56.35;101216.29;2074978;84;21681;-75
2023/10/16 04:18:04;;;;;;;2.72;1.60;;;;;;;18.18;56.27;101217.44;2073665;84;21975;-72
2023/10/16 04:27:36;;;;;;;3.08;1.70;;;;;;;18.16;56.27;101215.42;2054634;83;22419;-72
2023/10/16 04:30:39;;;;;;;2.30;1.35;;;;;;;18.14;56.34;101212.93;2074887;83;21676;-74
2023/10/16 04:34:13;;;;;;;2.40;1.40;;;;;;;18.16;56.32;101220.78;2125885;81;22504;-72
2023/10/16 04:43:37;;;;;;;2.12;1.40;;;;;;;18.14;56.26;101224.16;2245453;77;22302;-72
2023/10/16 04:46:54;;;;;;;2.50;1.42;;;;;;;18.13;56.32;101220.61;2223678;77;21721;-73
2023/10/16 04:49:31;;;;;;;1.85;1.42;;;;;;;18.12;56.35;101218.12;2215469;75;21840;-71
2023/10/16 04:53:21;;;;;;;4.33;1.60;;;;;;;18.13;56.27;101218.44;2257779;75;51233;-73
2023/10/16 04:58:59;;;;;;;;;;;;;;;18.11;56.26;101220.44;2230271;77;22559;-72
2023/10/16 06:14:47;;;;;;;1.45;1.20;;;;;;;18.03;56.13;101262.30;2302308;77;21686;-74
2023/10/16 06:17:51;;;;;;;2.27;1.37;;;;;;;18.05;56.11;101264.28;2264237;77;50609;-71
2023/10/16 06:20:53;;;;;;;2.00;1.30;;;;;;;18.06;56.19;101270.50;2264516;77;49910;-72
2023/10/16 06:23:56;;;;;;;1.95;1.30;;;;;;;18.04;56.13;101263.96;2301978;75;50871;-73
2023/10/16 06:27:08;;;;;;;2.42;1.30;;;;;;;18.03;56.09;101259.63;2301984;75;51686;-73
2023/10/16 06:30:05;;;;;;;2.58;1.35;;;;;;;18.04;56.16;101265.30;2301571;75;22202;-73
2023/10/16 06:33:06;;;;;;;1.32;1.05;;;;;;;18.04;56.17;101268.48;2258040;75;22328;-71
2023/10/16 06:36:10;;;;;;;2.30;1.42;;;;;;;18.04;56.13;101264.47;2302128;76;50797;-73
2023/10/16 06:39:29;;;;;;;2.62;1.20;;;;;;;18.06;56.08;101266.48;2301846;77;50741;-75
2023/10/16 06:42:29;;;;;;;1.72;0.90;;;;;;;18.08;55.96;101271.66;2301192;77;22144;-72
2023/10/16 06:45:54;;;;;;;3.30;1.15;;;;;;;18.08;56.10;101268.98;2300617;75;50661;-74
2023/10/16 06:48:38;;;;;;;1.75;1.00;;;;;;;18.08;56.02;101267.64;2267241;77;21893;-73
2023/10/16 06:51:43;;;;;;;2.25;1.30;;;;;;;18.10;56.05;101266.98;2301802;77;50733;-74
2023/10/16 06:54:45;;;;;;;2.10;1.52;;;;;;;18.09;55.92;101274.19;2263660;77;21709;-74
2023/10/16 06:57:47;;;;;;;1.98;1.20;;;;;;;18.11;56.09;101284.23;2301747;76;50734;-74
2023/10/16 07:00:50;;;;;;;2.60;1.50;;;;;;;18.10;56.14;101282.55;2302512;76;50629;-70
2023/10/16 07:03:57;;;;;;;1.62;1.20;;;;;;;18.10;56.12;101284.39;2304117;77;51493;-75
2023/10/16 07:06:59;;;;;;;2.65;1.40;;;;;;;18.12;56.09;101287.75;2302071;76;50744;-72
2023/10/16 07:10:01;;;;;;;1.45;1.20;;;;;;;18.13;55.94;101290.75;2302090;77;50715;-72
2023/10/16 07:13:05;;;;;;;1.95;1.37;;;;;;;18.14;56.08;101283.08;2255880;77;50592;-74
2023/10/16 07:16:09;;;;;;;2.20;1.00;;;;;;;18.12;56.04;101283.73;2256570;76;51424;-75
2023/10/16 07:19:16;;;;;;;1.35;1.10;;;;;;;18.14;56.01;101276.38;2306767;76;51769;-73
2023/10/16 07:22:16;;;;;;;1.87;1.20;;;;;;;18.13;56.11;101273.34;2279464;77;23365;-72
2023/10/16 07:25:24;;;;;;;1.98;1.12;;;;;;;18.15;56.05;101276.70;2302121;76;50666;-72
2023/10/16 07:28:27;;;;;;;1.70;1.10;;;;;;;18.14;56.09;101275.04;2306611;76;52097;-73
2023/10/16 07:31:29;;;;;;;2.08;1.30;;;;;;;18.14;56.02;101280.40;2302483;76;50711;-73
2023/10/16 07:34:33;;;;;;;1.87;1.37;;;;;;;18.14;56.07;101289.77;2279220;77;50812;-74
2023/10/16 07:37:35;;;;;;;2.55;1.10;;;;;;;18.14;56.05;101297.80;2255894;77;51425;-75
2023/10/16 07:40:38;;;;;;;1.17;1.02;;;;;;;18.14;56.10;101293.78;2255664;77;50754;-73
2023/10/16 07:43:45;;;;;;;1.87;1.10;;;;;;;18.15;56.13;101290.09;2237165;77;51713;-75
2023/10/16 07:46:44;;;;;;;2.50;1.40;;;;;;;18.14;55.96;101293.28;2302063;76;21709;-75
2023/10/16 07:49:46;;;;;;;3.02;1.30;;;;;;;18.15;56.08;101298.13;2301548;76;50713;-74
2023/10/16 07:52:48;;;;;;;1.30;1.00;;;;;;;18.15;56.09;101304.83;2305654;75;49987;-74
2023/10/16 07:55:51;;;;;;;1.62;1.30;;;;;;;18.12;56.09;101300.64;2263640;76;50712;-72
2023/10/16 07:58:55;;;;;;;1.65;0.90;;;;;;;18.13;56.08;101308.16;2306269;76;51613;-72
2023/10/16 08:02:02;;;;;;;1.55;1.02;;;;;;;18.12;56.06;101299.80;2280274;77;51460;-74
2023/10/16 08:05:04;;;;;;;2.72;1.20;;;;;;;18.11;56.07;101300.78;2303596;75;21899;-74
2023/10/16 08:08:11;;;;;;;1.55;0.98;;;;;;;18.10;56.12;101305.81;2233373;77;50023;-74
2023/10/16 08:11:13;;;;;;;2.30;1.20;;;;;;;18.10;56.05;101305.31;2258190;76;22089;-72
2023/10/16 08:14:15;;;;;;;1.82;1.07;;;;;;;18.11;56.06;101312.84;2303578;76;50648;-74
2023/10/16 08:17:23;;;;;;;4.30;1.55;;;;;;;18.11;56.03;101315.52;2241004;76;51778;-73
2023/10/16 08:20:28;;;;;;;3.25;1.20;;;;;;;18.12;55.99;101314.02;2258896;77;21721;-73
2023/10/16 08:23:31;;;;;;;2.05;1.00;;;;;;;18.13;56.02;101321.55;2281981;76;22079;-71
2023/10/16 08:26:30;;;;;;;1.52;1.12;;;;;;;18.12;56.00;101323.91;2265841;77;22726;-70
2023/10/16 08:29:37;;;;;;;2.00;1.32;;;;;;;18.11;56.03;101318.19;2282632;76;51224;-73
2023/10/16 08:35:52;;;;;;;1.57;1.12;;;;;;;18.11;55.98;101314.17;2248024;77;21827;-72
2023/10/16 08:39:07;;;;;;;1.35;1.00;;;;;;;18.10;56.00;101315.19;2245342;78;50764;-73
2023/10/16 08:42:01;;;;;;;1.45;1.05;;;;;;;18.11;56.00;101316.86;2219959;77;21711;-74
2023/10/16 08:45:23;;;;;;;1.47;1.07;;;;;;;18.11;55.95;101320.88;2265626;77;50532;-73
2023/10/16 08:48:19;;;;;;;1.77;1.07;;;;;;;18.12;55.94;101317.21;2263939;77;22137;-74
2023/10/16 08:51:22;;;;;;;1.75;1.40;;;;;;;18.11;55.94;101308.82;2245241;78;50755;-72
2023/10/16 08:55:14;;;;;;;3.37;1.20;;;;;;;18.11;55.91;101315.52;2265724;77;51783;-71
2023/10/16 08:57:28;;;;;;;1.67;1.12;;;;;;;18.10;55.90;101312.52;2229849;77;21774;-74
2023/10/16 09:00:30;;;;;;;1.62;1.10;;;;;;;18.12;55.93;101310.52;2224515;76;50817;-73
2023/10/16 09:03:33;;;;;;;2.58;1.20;;;;;;;18.10;55.93;101307.98;2302365;77;50563;-72
2023/10/16 09:06:39;;;;;;;1.98;1.10;;;;;;;18.09;55.85;101314.36;2308292;76;51598;-71
2023/10/16 09:09:42;;;;;;;2.52;1.27;;;;;;;18.09;55.94;101314.36;2229758;79;50893;-72
2023/10/16 09:13:27;;;;;;;1.92;0.93;;;;;;;18.10;55.87;101316.53;2303798;75;50765;-75
2023/10/16 09:15:51;;;;;;;1.90;1.02;;;;;;;18.10;55.93;101323.22;2276120;76;22570;-70
2023/10/16 09:18:54;;;;;;;2.17;1.15;;;;;;;18.09;55.91;101321.56;2241773;77;51634;-74
2023/10/16 09:21:56;;;;;;;1.70;1.07;;;;;;;18.09;55.91;101329.59;2232114;76;51685;-70
2023/10/16 09:24:59;;;;;;;2.15;1.10;;;;;;;18.09;55.88;101326.92;2303207;76;51147;-75
2023/10/16 09:28:01;;;;;;;2.08;1.00;;;;;;;18.08;55.93;101327.91;2265125;76;51717;-73
2023/10/16 09:31:09;;;;;;;1.37;0.90;;;;;;;18.06;55.98;101327.58;2257664;77;51643;-74
2023/10/16 09:34:09;;;;;;;2.40;1.20;;;;;;;18.06;55.83;101320.88;2251412;76;21865;-73
2023/10/16 09:37:20;;;;;;;1.27;0.93;;;;;;;18.06;55.87;101324.06;2301904;76;50564;-74
2023/10/16 09:40:37;;;;;;;1.60;1.10;;;;;;;18.08;55.85;101329.23;2281833;77;21902;-73
2023/10/16 09:43:40;;;;;;;1.65;1.00;;;;;;;18.06;55.96;101330.76;2261810;77;51237;-72
2023/10/16 09:49:46;;;;;;;1.87;1.27;;;;;;;18.06;55.92;101329.42;2302339;76;21740;-72
2023/10/16 09:52:48;;;;;;;1.65;0.93;;;;;;;18.06;55.83;101337.45;2305805;75;51737;-72
2023/10/16 09:55:52;;;;;;;1.77;1.20;;;;;;;18.06;55.82;101339.63;2306403;76;51019;-70
2023/10/16 09:58:56;;;;;;;2.37;1.20;;;;;;;18.06;55.83;101338.28;2301574;75;51028;-73
2023/10/16 10:02:05;;;;;;;1.85;1.20;;;;;;;18.08;55.86;101341.29;2302398;75;50931;-71
2023/10/16 10:05:09;;;;;;;3.42;1.30;;;;;;;18.08;55.88;101333.25;2279804;75;22041;-72
2023/10/16 10:08:17;;;;;;;2.95;1.25;;;;;;;18.08;55.74;101333.25;2301663;75;21625;-72
2023/10/16 10:14:39;;;;;;;2.30;1.10;;;;;;;18.05;55.82;101333.91;2262307;77;21764;-73
2023/10/16 10:17:40;;;;;;;1.62;1.20;;;;;;;18.06;55.86;101342.30;2302375;75;22179;-72
2023/10/16 10:20:44;;;;;;;1.35;1.20;;;;;;;18.06;55.82;101339.63;2279725;77;51376;-72
2023/10/16 10:23:50;;;;;;;1.90;1.02;;;;;;;18.07;55.81;101336.44;2255926;77;50923;-78
2023/10/16 10:26:52;;;;;;;1.57;1.00;;;;;;;18.06;55.82;101335.61;2306282;76;50825;-71
2023/10/16 10:29:55;;;;;;;1.10;1.00;;;;;;;18.08;55.80;101334.59;2280619;77;50766;-75
2023/10/16 10:32:59;;;;;;;1.40;0.93;;;;;;;18.07;55.83;101336.44;2264123;76;50611;-75
2023/10/16 10:36:27;;;;;;;1.45;1.07;;;;;;;18.08;55.77;101330.07;2303920;76;51666;-76
2023/10/16 10:39:38;;;;;;;1.77;1.20;;;;;;;18.08;55.82;101331.41;2300684;76;50735;-75
2023/10/16 10:42:45;;;;;;;1.35;1.20;;;;;;;18.08;55.76;101334.59;2300943;76;22530;-74
2023/10/16 10:45:47;;;;;;;1.42;0.90;;;;;;;18.06;55.76;101339.63;2263779;76;21835;-77
2023/10/16 10:48:54;;;;;;;1.65;0.90;;;;;;;18.07;55.66;101339.12;2255136;77;50787;-76
2023/10/16 10:51:55;;;;;;;1.55;1.07;;;;;;;18.05;55.83;101333.91;2302135;76;22046;-73
2023/10/16 10:54:58;;;;;;;1.07;0.90;;;;;;;18.05;55.75;101329.90;2301787;77;50525;-73
2023/10/16 10:58:11;;;;;;;2.33;1.07;;;;;;;18.04;55.83;101333.59;2301349;76;50729;-76
2023/10/16 11:01:16;;;;;;;1.15;0.80;;;;;;;18.03;55.86;101334.60;2302012;76;21648;-76
2023/10/16 11:04:20;;;;;;;1.60;1.15;;;;;;;18.03;55.87;101336.41;2279259;76;50735;-74
2023/10/16 11:07:28;;;;;;;1.90;1.30;;;;;;;18.04;55.77;101336.27;2300747;76;23085;-74
2023/10/16 11:10:31;;;;;;;1.30;1.00;;;;;;;18.04;55.83;101334.09;2255763;75;50106;-73
2023/10/16 11:13:33;;;;;;;1.55;1.07;;;;;;;18.03;55.88;101331.06;2258273;77;50594;-76
2023/10/16 11:16:45;;;;;;;2.30;0.93;;;;;;;18.03;55.81;101323.03;2219038;77;50276;-72
2023/10/16 11:19:50;;;;;;;1.57;0.95;;;;;;;18.02;55.90;101326.72;2227831;79;51532;-74
2023/10/16 11:22:57;;;;;;;2.40;1.20;;;;;;;18.01;55.89;101317.85;2217998;77;50732;-76
2023/10/16 11:25:59;;;;;;;2.08;1.00;;;;;;;18.01;55.90;101321.03;2252082;77;51786;-74
2023/10/16 11:29:04;;;;;;;1.47;0.90;;;;;;;18.01;55.82;101326.39;2256382;77;50798;-74
2023/10/16 11:32:09;;;;;;;1.65;0.90;;;;;;;18.00;55.82;101318.84;2225032;79;50696;-70
2023/10/16 11:35:18;;;;;;;1.20;0.70;;;;;;;18.00;55.89;101325.53;2260979;76;24450;-76
2023/10/16 11:38:28;;;;;;;2.00;1.05;;;;;;;18.01;55.70;101317.02;2276314;77;22255;-75
2023/10/16 11:41:26;;;;;;;1.92;1.20;;;;;;;18.00;55.85;101320.17;2259752;76;22321;-74
2023/10/16 11:44:32;;;;;;;1.90;1.00;;;;;;;17.99;55.82;101306.45;2276685;77;22399;-74
2023/10/16 11:47:39;;;;;;;1.20;0.88;;;;;;;17.99;55.91;101309.14;2259525;77;22238;-76
2023/10/16 11:50:40;;;;;;;1.90;1.05;;;;;;;17.98;55.82;101315.50;2297331;77;22225;-75
2023/10/16 11:53:43;;;;;;;1.50;1.07;;;;;;;17.98;55.94;101304.80;2250988;76;50346;-76
2023/10/16 11:56:47;;;;;;;1.52;1.00;;;;;;;18.02;55.69;101305.30;2297294;76;51479;-75
2023/10/16 11:59:51;;;;;;;2.00;1.10;;;;;;;18.01;55.77;101303.12;2233355;77;52497;-76
2023/10/16 12:02:53;;;;;;;1.60;1.10;;;;;;;18.02;55.79;101297.27;2280096;77;50396;-76
2023/10/16 12:05:58;;;;;;;1.60;0.80;;;;;;;18.04;55.57;101296.09;2297600;76;49931;-76
2023/10/16 12:09:00;;;;;;;2.85;1.12;;;;;;;18.04;55.56;101292.08;2277360;77;50452;-73
2023/10/16 12:12:06;;;;;;;1.98;1.20;;;;;;;18.04;55.74;101296.09;2252031;77;50453;-75
2023/10/16 12:15:10;;;;;;;2.52;1.17;;;;;;;18.01;55.74;101297.77;2260483;77;21977;-76
2023/10/16 12:18:12;;;;;;;2.05;1.10;;;;;;;18.02;55.82;101306.64;2253108;77;23033;-75
2023/10/16 12:21:16;;;;;;;1.60;0.95;;;;;;;18.01;55.85;101302.30;2277233;76;50278;-76
2023/10/16 12:24:18;;;;;;;1.98;1.12;;;;;;;18.00;55.81;101302.77;2302182;76;51743;-76
2023/10/16 12:27:21;;;;;;;2.33;0.85;;;;;;;17.99;55.88;101301.11;2297846;76;50760;-77
2023/10/16 12:30:25;;;;;;;2.12;1.00;;;;;;;17.99;55.83;101306.45;2276552;77;50284;-77
2023/10/16 12:33:27;;;;;;;2.15;1.00;;;;;;;17.97;55.91;101300.42;2265991;77;51523;-76
2023/10/16 12:36:31;;;;;;;1.80;1.15;;;;;;;17.97;55.83;101296.91;2276422;77;51401;-76
2023/10/16 12:39:37;;;;;;;1.92;1.00;;;;;;;17.95;55.95;101301.08;2302110;76;51615;-75
2023/10/16 12:42:38;;;;;;;1.12;0.80;;;;;;;17.97;55.87;101293.73;2274458;77;22096;-76
2023/10/16 12:45:40;;;;;;;1.67;1.00;;;;;;;17.96;55.76;101297.42;2251756;76;51256;-78
2023/10/16 12:48:44;;;;;;;1.27;0.90;;;;;;;17.96;55.87;101300.09;2302478;76;52681;-74
2023/10/16 12:51:48;;;;;;;1.22;0.80;;;;;;;17.95;55.91;101300.25;2253314;77;50300;-76
2023/10/16 12:54:52;;;;;;;0.93;0.82;;;;;;;17.96;55.92;101305.45;2298412;77;21860;-76
2023/10/16 12:57:54;;;;;;;1.50;1.00;;;;;;;17.94;55.85;101308.79;2260877;77;22589;-75
2023/10/16 13:00:58;;;;;;;1.37;0.90;;;;;;;17.95;55.87;101310.45;2299616;77;50386;-76
2023/10/16 13:04:00;;;;;;;1.60;0.93;;;;;;;17.93;55.74;101300.43;2302027;76;52701;-76
2023/10/16 13:07:02;;;;;;;1.00;0.88;;;;;;;17.91;55.87;101305.10;2298523;76;51450;-76
2023/10/16 13:10:08;;;;;;;2.42;1.20;;;;;;;17.92;55.95;101307.27;2298136;77;51467;-76
2023/10/16 13:13:09;;;;;;;1.92;1.00;;;;;;;17.91;55.75;101306.44;2252592;77;22289;-76
2023/10/16 13:16:12;;;;;;;1.77;1.15;;;;;;;17.91;55.97;101309.12;2277292;77;50671;-76
2023/10/16 13:19:14;;;;;;;1.55;1.10;;;;;;;17.91;55.94;101305.10;2298602;76;50472;-75
2023/10/16 13:22:17;;;;;;;1.60;0.90;;;;;;;17.90;55.87;101303.41;2298054;76;50125;-70
2023/10/16 13:25:31;;;;;;;1.32;0.82;;;;;;;17.89;55.83;101301.74;2298289;76;51595;-75
2023/10/16 13:28:31;;;;;;;3.00;0.80;;;;;;;17.89;55.90;101301.74;2276580;77;22384;-76
2023/10/16 13:31:33;;;;;;;2.02;1.10;;;;;;;17.91;55.70;101309.62;2273411;76;51444;-75
2023/10/16 13:34:42;;;;;;;1.52;1.15;;;;;;;17.90;55.83;101302.06;2298667;77;50705;-75
2023/10/16 13:37:47;;;;;;;1.65;1.05;;;;;;;17.89;55.74;101305.76;2298812;76;21895;-76
2023/10/16 13:40:49;;;;;;;1.00;0.80;;;;;;;17.89;55.83;101309.77;2298290;77;51570;-77
2023/10/16 13:43:52;;;;;;;1.50;0.75;;;;;;;17.89;55.79;101308.44;2298200;76;50614;-77
2023/10/16 13:46:59;;;;;;;1.42;0.90;;;;;;;17.89;55.80;101315.13;2252574;77;50571;-75
2023/10/16 13:50:00;;;;;;;1.98;1.02;;;;;;;17.88;55.84;101309.92;2298313;76;22188;-77
2023/10/16 13:53:08;;;;;;;2.58;1.10;;;;;;;17.89;55.86;101314.30;2252361;77;50395;-75
2023/10/16 13:56:11;;;;;;;1.62;1.00;;;;;;;17.87;55.85;101317.12;2254300;76;22148;-73
2023/10/16 13:59:14;;;;;;;1.62;0.90;;;;;;;17.87;55.83;101323.81;2260514;77;50085;-77
2023/10/16 14:02:16;;;;;;;1.50;0.90;;;;;;;17.87;55.83;101323.81;2298177;76;51580;-76
2023/10/16 14:05:20;;;;;;;1.57;0.93;;;;;;;17.87;55.62;101317.63;2299314;76;50340;-77
2023/10/16 14:08:36;;;;;;;1.27;1.07;;;;;;;17.87;55.71;101315.78;2300009;76;51501;-75
2023/10/16 14:11:38;;;;;;;2.17;0.82;;;;;;;17.87;55.73;101311.77;2300453;76;22255;-76
2023/10/16 14:14:40;;;;;;;1.40;0.80;;;;;;;17.88;55.78;101315.28;2260992;77;22346;-72
2023/10/16 14:17:45;;;;;;;1.07;0.98;;;;;;;17.89;55.81;101328.52;2260377;77;50347;-72
2023/10/16 14:20:46;;;;;;;1.82;1.20;;;;;;;17.86;55.73;101316.80;2261181;77;22231;-72
2023/10/16 14:23:50;;;;;;;2.30;1.10;;;;;;;17.88;55.64;101321.97;2277022;77;50232;-74
2023/10/16 14:26:54;;;;;;;2.42;0.90;;;;;;;17.87;55.72;101317.12;2298912;76;22318;-73
2023/10/16 14:29:59;;;;;;;1.87;1.13;;;;;;;17.85;55.67;101319.12;2253500;76;50852;-75
2023/10/16 14:33:01;;;;;;;1.87;1.10;;;;;;;17.86;55.80;101314.13;2259575;77;25631;-73
2023/10/16 14:36:08;;;;;;;2.22;1.10;;;;;;;17.84;55.70;101310.25;2208147;76;51089;-72
2023/10/16 14:39:11;;;;;;;2.62;0.90;;;;;;;17.86;55.72;101309.27;2250861;77;50670;-73
2023/10/16 14:42:16;;;;;;;1.00;0.78;;;;;;;17.85;55.62;101304.39;2296570;77;51517;-73
2023/10/16 14:45:17;;;;;;;1.47;0.90;;;;;;;17.85;55.69;101312.42;2250745;76;22437;-72
2023/10/16 14:48:19;;;;;;;1.70;1.00;;;;;;;17.83;55.80;101305.08;2275553;77;51525;-73
2023/10/16 14:51:22;;;;;;;2.67;0.90;;;;;;;17.84;55.76;101308.08;2258540;77;51442;-72
2023/10/16 14:54:25;;;;;;;1.57;0.98;;;;;;;17.83;55.78;101310.44;2250476;77;51482;-73
2023/10/16 14:57:27;;;;;;;0.85;0.78;;;;;;;17.83;55.74;101311.27;2296649;76;50156;-73
2023/10/16 15:00:41;;;;;;;1.10;0.88;;;;;;;17.83;55.76;101315.28;2234347;77;52351;-74
2023/10/16 15:03:45;;;;;;;2.02;1.00;;;;;;;17.82;55.68;101308.73;2297004;76;22361;-74
2023/10/16 15:06:47;;;;;;;2.00;0.97;;;;;;;17.83;55.73;101309.09;2296913;76;51574;-74
2023/10/16 15:09:49;;;;;;;1.82;0.90;;;;;;;17.83;55.74;101313.11;2300856;76;50976;-74
2023/10/16 15:12:52;;;;;;;2.37;1.20;;;;;;;17.83;55.74;101309.09;2258511;77;51536;-75
2023/10/16 15:16:00;;;;;;;1.47;1.00;;;;;;;17.82;55.69;101310.91;2296538;76;50335;-76
2023/10/16 15:18:58;;;;;;;2.20;1.05;;;;;;;17.82;55.71;101312.25;2296210;77;22449;-73
2023/10/16 15:22:01;;;;;;;1.15;0.85;;;;;;;17.82;55.66;101307.41;2258763;77;50055;-75
2023/10/16 15:25:04;;;;;;;1.57;1.15;;;;;;;17.81;55.72;101317.27;2296451;76;50682;-74
2023/10/16 15:28:09;;;;;;;1.47;1.00;;;;;;;17.81;55.74;101311.09;2251163;77;50618;-73
2023/10/16 15:31:12;;;;;;;1.20;0.93;;;;;;;17.80;55.81;101312.94;2297159;77;50358;-74
2023/10/16 15:34:14;;;;;;;1.15;0.90;;;;;;;17.80;55.70;101306.72;2297014;76;50744;-72
2023/10/16 15:37:18;;;;;;;1.40;0.78;;;;;;;17.79;55.76;101304.55;2296724;76;51478;-73
2023/10/16 15:40:20;;;;;;;1.45;0.90;;;;;;;17.79;55.66;101319.27;2276030;77;50295;-74
2023/10/16 15:43:24;;;;;;;1.22;0.90;;;;;;;17.78;55.80;101308.71;2250430;77;50621;-74
2023/10/16 15:46:28;;;;;;;2.02;1.00;;;;;;;17.77;55.82;101309.69;2295462;76;51499;-74
2023/10/16 15:49:30;;;;;;;1.67;1.00;;;;;;;17.77;55.61;101313.20;2275432;77;52491;-73
2023/10/16 15:52:32;;;;;;;1.75;0.80;;;;;;;17.76;55.69;101320.91;2250217;77;51542;-73
2023/10/16 15:55:35;;;;;;;1.27;0.90;;;;;;;17.77;55.72;101315.05;2275500;76;51472;-73
2023/10/16 15:58:38;;;;;;;1.32;0.90;;;;;;;17.77;55.60;101319.06;2258608;77;50670;-74